Time;durP1;ratioP1;P1;durP2;ratioP2;P2;SDS_P1;SDS_P2;PMS_P1;PMS_P2;Temp;Humidity;BMP_temperature;BMP_pressure;BME280_temperature;BME280_humidity;BME280_pressure;Samples;Min_cycle;Max_cycle;Signal;HPM_P1;HPM_P2
2023/07/30 00:00:53;;;;;;;1.13;0.90;;;;;;;17.34;90.42;95224.44;5018100;28;20182;-85
2023/07/30 00:03:19;;;;;;;0.98;0.90;;;;;;;17.33;91.35;95228.09;5017597;28;20253;-85
2023/07/30 00:05:52;;;;;;;1.95;1.10;;;;;;;17.15;93.01;95228.63;5020895;28;20338;-86
2023/07/30 00:08:17;;;;;;;1.20;1.08;;;;;;;17.06;93.08;95232.41;5033374;28;20186;-85
2023/07/30 00:10:42;;;;;;;1.75;1.08;;;;;;;17.19;92.48;95231.66;5028931;28;20550;-85
2023/07/30 00:13:08;;;;;;;1.10;1.00;;;;;;;17.30;90.86;95232.91;5032915;28;20535;-85
2023/07/30 00:15:33;;;;;;;2.05;0.68;;;;;;;17.31;90.62;95230.06;5038948;28;20213;-86
2023/07/30 00:17:58;;;;;;;1.45;0.90;;;;;;;17.51;89.38;95232.78;5020015;28;20197;-84
2023/07/30 00:20:23;;;;;;;1.35;0.90;;;;;;;17.42;89.97;95229.53;5032742;28;20193;-85
2023/07/30 00:22:49;;;;;;;1.10;0.77;;;;;;;17.44;89.84;95234.56;5036316;28;20186;-84
2023/07/30 00:25:14;;;;;;;0.90;0.90;;;;;;;17.40;90.35;95234.13;5035780;28;20210;-84
2023/07/30 00:27:40;;;;;;;0.93;0.90;;;;;;;17.39;90.53;95240.41;5029283;28;20218;-84
2023/07/30 00:30:06;;;;;;;2.97;1.10;;;;;;;17.28;91.91;95241.78;5014313;28;20179;-85
2023/07/30 00:32:31;;;;;;;1.23;1.10;;;;;;;17.28;91.76;95251.47;5018564;28;20194;-86
2023/07/30 00:34:57;;;;;;;2.25;1.00;;;;;;;17.17;92.70;95252.84;5029952;28;20194;-85
2023/07/30 00:37:22;;;;;;;1.52;1.10;;;;;;;17.33;92.35;95253.53;5033886;28;20214;-85
2023/07/30 00:39:47;;;;;;;1.38;1.10;;;;;;;17.09;93.21;95254.81;5016823;28;20213;-86
2023/07/30 00:42:13;;;;;;;1.45;1.20;;;;;;;16.98;95.46;95253.56;5038950;28;20277;-86
2023/07/30 00:44:38;;;;;;;1.30;1.20;;;;;;;17.10;94.77;95254.63;5017905;28;20304;-86
2023/07/30 00:47:03;;;;;;;1.35;1.10;;;;;;;17.03;97.05;95247.72;5028972;28;20221;-86
2023/07/30 00:49:29;;;;;;;1.90;1.33;;;;;;;17.04;98.05;95249.34;5030626;28;20260;-86
2023/07/30 00:51:56;;;;;;;1.48;1.30;;;;;;;17.19;97.30;95248.19;5030205;28;20273;-86
2023/07/30 00:54:21;;;;;;;1.35;1.25;;;;;;;17.17;98.39;95250.22;5019255;28;20178;-86
2023/07/30 00:56:51;;;;;;;1.00;1.00;;;;;;;17.10;100.00;95256.44;5012455;28;20175;-85
2023/07/30 00:59:16;;;;;;;1.45;1.35;;;;;;;17.16;100.00;95259.09;5008049;28;20187;-85
2023/07/30 01:01:43;;;;;;;2.00;1.50;;;;;;;17.44;98.40;95266.06;5008476;28;20187;-86
2023/07/30 01:04:08;;;;;;;3.40;1.25;;;;;;;17.41;99.14;95263.84;5035730;28;20198;-86
2023/07/30 01:06:34;;;;;;;1.70;1.60;;;;;;;17.57;97.81;95266.09;5033336;28;20691;-86
2023/07/30 01:08:59;;;;;;;1.55;1.45;;;;;;;17.73;97.15;95265.78;5005014;28;20188;-86
2023/07/30 01:11:24;;;;;;;2.53;1.52;;;;;;;17.47;99.18;95271.72;5008825;28;20195;-86
2023/07/30 01:13:50;;;;;;;1.40;1.20;;;;;;;17.69;96.68;95268.97;5023796;28;20193;-86
2023/07/30 01:16:16;;;;;;;1.90;1.40;;;;;;;17.69;97.07;95277.66;5026389;28;20226;-86
2023/07/30 01:18:41;;;;;;;2.17;1.60;;;;;;;17.76;96.24;95275.91;5007133;28;20183;-86
2023/07/30 01:21:06;;;;;;;1.45;1.35;;;;;;;17.69;97.56;95269.78;5023074;28;20217;-87
2023/07/30 01:23:31;;;;;;;1.58;1.35;;;;;;;17.67;97.86;95273.59;5000958;28;20186;-87
2023/07/30 01:26:09;;;;;;;1.48;1.20;;;;;;;17.69;98.19;95269.78;5018078;28;20215;-87
2023/07/30 01:28:38;;;;;;;2.15;1.50;;;;;;;17.85;97.33;95276.53;4997014;28;20226;-87
2023/07/30 01:31:05;;;;;;;4.00;1.77;;;;;;;17.89;97.83;95274.31;5024850;28;20187;-86
2023/07/30 01:33:31;;;;;;;2.03;1.60;;;;;;;17.93;97.23;95278.13;5021211;28;20179;-87
2023/07/30 01:35:57;;;;;;;3.40;1.50;;;;;;;17.94;97.44;95283.22;5010119;28;20244;-85
2023/07/30 01:38:22;;;;;;;1.35;1.25;;;;;;;17.94;98.15;95282.41;5020145;28;20266;-87
2023/07/30 01:40:48;;;;;;;1.58;1.30;;;;;;;18.02;98.38;95284.81;5037338;28;20266;-84
2023/07/30 01:43:13;;;;;;;1.35;1.17;;;;;;;18.00;98.47;95282.41;5019729;28;20187;-84
2023/07/30 01:45:39;;;;;;;1.50;1.40;;;;;;;18.01;98.86;95277.94;5017852;28;20266;-85
2023/07/30 01:48:05;;;;;;;2.20;1.75;;;;;;;18.01;98.78;95277.94;5009120;28;20186;-85
2023/07/30 01:50:30;;;;;;;2.20;1.45;;;;;;;17.94;99.92;95277.16;5031082;28;20229;-87
2023/07/30 01:52:55;;;;;;;1.40;1.30;;;;;;;17.89;100.00;95274.31;5021211;28;20279;-86
2023/07/30 01:55:21;;;;;;;1.35;1.25;;;;;;;18.07;98.78;95279.78;5024502;28;20202;-87
2023/07/30 01:57:46;;;;;;;2.03;1.30;;;;;;;18.11;98.08;95279.19;5020339;28;20218;-87
2023/07/30 02:00:12;;;;;;;1.20;1.10;;;;;;;18.05;98.21;95274.75;5019376;28;20193;-88
2023/07/30 02:02:37;;;;;;;3.17;1.40;;;;;;;18.04;97.87;95274.94;5005390;28;20236;-87
2023/07/30 02:05:02;;;;;;;1.40;1.30;;;;;;;17.98;98.02;95270.47;5000015;28;20210;-87
2023/07/30 02:07:28;;;;;;;1.58;1.40;;;;;;;17.97;97.55;95274.94;5027798;28;20186;-87
2023/07/30 02:09:53;;;;;;;2.45;1.90;;;;;;;17.91;98.72;95272.28;5023332;28;20209;-88
2023/07/30 02:12:18;;;;;;;2.10;2.00;;;;;;;17.81;99.01;95265.59;5023685;28;20548;-87
2023/07/30 02:14:44;;;;;;;2.58;1.85;;;;;;;17.91;98.51;95269.66;5021064;28;20249;-88
2023/07/30 02:17:09;;;;;;;2.40;2.20;;;;;;;17.87;98.79;95273.69;5007827;28;20193;-88
2023/07/30 02:19:34;;;;;;;2.53;2.33;;;;;;;17.82;99.60;95269.84;5015411;28;20229;-88
2023/07/30 02:22:00;;;;;;;4.45;2.58;;;;;;;17.91;99.54;95272.28;5029859;28;20162;-88
2023/07/30 02:24:25;;;;;;;3.55;2.28;;;;;;;18.06;98.61;95275.53;5019139;28;20195;-88
2023/07/30 02:26:50;;;;;;;2.78;2.58;;;;;;;18.06;98.37;95273.72;5008092;28;20176;-88
2023/07/30 02:29:16;;;;;;;2.35;2.15;;;;;;;18.09;97.89;95267.25;5008633;28;20183;-88
2023/07/30 02:31:41;;;;;;;2.90;2.30;;;;;;;18.06;97.60;95272.91;5015811;28;20175;-88
2023/07/30 02:34:08;;;;;;;3.00;2.70;;;;;;;17.98;98.46;95273.09;5031928;28;20205;-86
2023/07/30 02:36:34;;;;;;;2.70;2.50;;;;;;;17.92;99.40;95268.63;5029963;28;20229;-87
2023/07/30 02:38:59;;;;;;;3.03;2.58;;;;;;;17.99;98.61;95274.72;5050151;28;20190;-86
2023/07/30 02:41:24;;;;;;;2.95;2.67;;;;;;;17.99;98.40;95270.28;5012508;28;20195;-86
2023/07/30 02:43:50;;;;;;;2.80;2.60;;;;;;;18.03;98.09;95276.75;5022019;28;20195;-87
2023/07/30 02:46:15;;;;;;;4.97;3.08;;;;;;;18.03;98.18;95282.03;5006252;28;20273;-87
2023/07/30 02:48:40;;;;;;;3.78;2.88;;;;;;;17.99;98.38;95287.84;5008747;28;20183;-88
2023/07/30 02:51:05;;;;;;;2.60;2.40;;;;;;;17.99;98.45;95285.22;5009451;28;20288;-89
2023/07/30 02:53:31;;;;;;;3.03;2.63;;;;;;;17.97;98.88;95293.31;5027788;28;20190;-88
2023/07/30 02:55:56;;;;;;;2.75;2.50;;;;;;;17.96;99.46;95275.94;5006939;28;20221;-87
2023/07/30 02:58:21;;;;;;;4.15;2.60;;;;;;;17.99;99.87;95282.59;5006094;28;20185;-88
2023/07/30 03:00:47;;;;;;;3.60;2.53;;;;;;;17.97;100.00;95282.81;5023972;28;20175;-87
2023/07/30 03:03:12;;;;;;;5.63;2.60;;;;;;;18.01;99.74;95277.94;5023295;28;20182;-88
2023/07/30 03:05:41;;;;;;;3.30;2.85;;;;;;;18.09;99.06;95275.13;5011035;28;20659;-88
2023/07/30 03:08:07;;;;;;;2.92;2.50;;;;;;;17.92;100.00;95279.94;5004675;28;20613;-88
2023/07/30 03:10:32;;;;;;;3.45;2.70;;;;;;;18.07;98.88;95287.66;5011762;28;20184;-88
2023/07/30 03:12:57;;;;;;;3.33;2.63;;;;;;;17.95;100.00;95284.84;5004299;28;20180;-88
2023/07/30 03:15:23;;;;;;;2.70;2.47;;;;;;;18.12;98.80;95290.53;5004927;28;20356;-88
2023/07/30 03:17:48;;;;;;;3.30;2.22;;;;;;;18.00;99.72;95292.91;5019251;28;20794;-87
2023/07/30 03:20:13;;;;;;;3.03;2.20;;;;;;;18.13;99.18;95286.88;5009445;28;20199;-88
2023/07/30 03:22:39;;;;;;;3.40;2.45;;;;;;;18.12;99.18;95293.16;5008929;28;20205;-88
2023/07/30 03:25:04;;;;;;;4.65;2.88;;;;;;;18.09;99.74;95293.53;5007525;28;20206;-88
2023/07/30 03:27:29;;;;;;;3.35;2.53;;;;;;;18.17;99.64;95303.03;5016668;28;20179;-88
2023/07/30 03:29:55;;;;;;;2.90;2.63;;;;;;;18.21;99.32;95305.09;5006191;28;20179;-88
2023/07/30 03:32:20;;;;;;;2.42;2.17;;;;;;;18.24;99.57;95306.50;5006243;28;20737;-88
2023/07/30 03:34:45;;;;;;;3.08;2.50;;;;;;;18.24;99.66;95309.94;5012968;28;20230;-88
2023/07/30 03:37:11;;;;;;;3.03;2.83;;;;;;;18.20;99.94;95323.66;5024050;28;20183;-87
2023/07/30 03:39:36;;;;;;;4.75;2.85;;;;;;;18.21;99.97;95315.59;5006106;28;20182;-86
2023/07/30 03:42:01;;;;;;;3.05;2.63;;;;;;;18.27;99.75;95320.03;5020089;28;20663;-86
2023/07/30 03:44:27;;;;;;;2.65;2.45;;;;;;;18.29;99.49;95322.47;5023642;28;20237;-85
2023/07/30 03:46:52;;;;;;;3.90;2.90;;;;;;;18.21;100.00;95309.53;5006129;28;20261;-85
2023/07/30 03:49:17;;;;;;;2.92;2.65;;;;;;;18.21;100.00;95310.34;5020798;28;20179;-86
2023/07/30 03:51:43;;;;;;;3.42;2.40;;;;;;;18.24;100.00;95311.75;5019309;28;20183;-86
2023/07/30 03:54:08;;;;;;;3.63;3.10;;;;;;;18.11;100.00;95299.41;5000394;28;20776;-86
2023/07/30 03:56:33;;;;;;;2.90;2.60;;;;;;;18.21;100.00;95299.81;5007120;28;20198;-86
2023/07/30 03:58:59;;;;;;;3.42;2.67;;;;;;;18.22;100.00;95303.25;5025618;28;20179;-86
2023/07/30 04:01:24;;;;;;;2.78;2.53;;;;;;;18.23;100.00;95297.00;5020164;28;20259;-86
2023/07/30 04:03:49;;;;;;;3.22;2.60;;;;;;;18.21;100.00;95304.28;5017933;28;20183;-85
2023/07/30 04:06:15;;;;;;;3.50;2.45;;;;;;;18.13;100.00;95314.97;5021724;28;20218;-86
2023/07/30 04:08:40;;;;;;;3.47;2.55;;;;;;;18.14;100.00;95320.03;5015512;28;20183;-86
2023/07/30 04:11:05;;;;;;;3.10;2.75;;;;;;;18.19;100.00;95322.84;5019964;28;20190;-85
2023/07/30 04:13:31;;;;;;;2.92;2.20;;;;;;;18.23;100.00;95323.28;5011351;28;20178;-86
2023/07/30 04:15:56;;;;;;;2.40;2.10;;;;;;;18.21;100.00;95325.31;5017527;28;20203;-86
2023/07/30 04:18:22;;;;;;;2.80;2.28;;;;;;;18.23;100.00;95331.97;5025886;28;20536;-86
2023/07/30 04:20:48;;;;;;;2.63;1.90;;;;;;;18.19;100.00;95336.00;4989581;28;20199;-86
2023/07/30 04:23:13;;;;;;;3.25;2.20;;;;;;;18.16;100.00;95338.22;5019693;28;20190;-85
2023/07/30 04:25:38;;;;;;;1.50;1.40;;;;;;;18.18;100.00;95337.00;4993692;28;20211;-85
2023/07/30 04:28:04;;;;;;;1.50;1.40;;;;;;;18.06;100.00;95338.59;4994627;28;20180;-86
2023/07/30 04:30:29;;;;;;;1.98;1.50;;;;;;;18.04;99.94;95343.25;5020803;28;20266;-85
2023/07/30 04:32:54;;;;;;;2.03;1.50;;;;;;;17.99;99.25;95348.28;5018330;28;20651;-86
2023/07/30 04:35:19;;;;;;;1.30;1.20;;;;;;;18.04;98.67;95351.13;5009406;28;20195;-86
2023/07/30 04:37:45;;;;;;;1.70;1.55;;;;;;;17.94;98.67;95348.09;5023441;28;20189;-86
2023/07/30 04:40:10;;;;;;;1.58;1.45;;;;;;;17.91;97.65;95345.84;5008662;28;20183;-86
2023/07/30 04:42:36;;;;;;;2.53;1.60;;;;;;;17.87;97.08;95347.25;5004004;28;20181;-85
2023/07/30 04:45:01;;;;;;;1.95;1.50;;;;;;;17.83;96.35;95355.50;5019825;28;20214;-85
2023/07/30 04:47:26;;;;;;;3.72;1.55;;;;;;;17.77;96.90;95345.81;5026885;28;21886;-86
2023/07/30 04:49:52;;;;;;;1.38;1.27;;;;;;;17.58;96.69;95349.13;5005714;28;20661;-87
2023/07/30 04:52:17;;;;;;;1.55;1.45;;;;;;;17.56;97.10;95367.69;5024943;28;20651;-85
2023/07/30 04:54:42;;;;;;;1.45;1.35;;;;;;;17.53;96.57;95354.16;5024882;28;20229;-85
2023/07/30 04:57:08;;;;;;;2.72;1.40;;;;;;;17.56;96.58;95354.56;5023970;28;20175;-84
2023/07/30 04:59:36;;;;;;;1.63;1.50;;;;;;;17.53;96.97;95351.53;5006757;28;20267;-85
2023/07/30 05:02:01;;;;;;;1.63;1.27;;;;;;;17.59;97.03;95350.75;5023945;28;20175;-84
2023/07/30 05:04:26;;;;;;;2.88;1.60;;;;;;;17.60;97.26;95359.44;5022299;28;20203;-85
2023/07/30 05:06:52;;;;;;;3.03;1.55;;;;;;;17.68;96.85;95362.72;5021608;28;20229;-86
2023/07/30 05:09:17;;;;;;;1.58;1.40;;;;;;;17.70;97.30;95358.09;5025222;28;20239;-85
2023/07/30 05:11:42;;;;;;;2.17;1.30;;;;;;;17.80;96.67;95353.28;5026160;28;20523;-85
2023/07/30 05:14:08;;;;;;;3.42;1.20;;;;;;;17.95;96.26;95361.00;5037902;28;20187;-85
2023/07/30 05:16:33;;;;;;;1.00;1.00;;;;;;;18.02;95.44;95358.38;5028024;28;20202;-85
2023/07/30 05:18:58;;;;;;;1.05;1.00;;;;;;;18.09;95.34;95362.66;5062450;28;20197;-85
2023/07/30 05:21:24;;;;;;;1.25;0.95;;;;;;;18.15;95.57;95362.88;5010139;28;20175;-86
2023/07/30 05:23:49;;;;;;;1.15;0.90;;;;;;;18.16;94.93;95365.31;5005514;28;20182;-86
2023/07/30 05:26:14;;;;;;;1.33;0.90;;;;;;;18.21;95.34;95373.41;5043613;28;20740;-86
2023/07/30 05:28:39;;;;;;;1.10;1.00;;;;;;;18.22;95.16;95368.97;5011851;28;20182;-86
2023/07/30 05:31:05;;;;;;;2.40;1.10;;;;;;;18.26;95.11;95378.88;5022420;28;20367;-86
2023/07/30 05:33:30;;;;;;;1.17;1.00;;;;;;;18.31;94.95;95363.31;5025767;28;20198;-86
2023/07/30 05:35:56;;;;;;;1.17;1.02;;;;;;;18.32;95.09;95362.31;5024319;28;20199;-85
2023/07/30 05:38:21;;;;;;;1.48;1.38;;;;;;;18.36;95.05;95353.00;5006846;28;20559;-86
2023/07/30 05:40:47;;;;;;;1.40;1.20;;;;;;;18.37;94.35;95359.88;5002938;28;20183;-85
2023/07/30 05:43:12;;;;;;;1.20;1.10;;;;;;;18.42;94.34;95359.28;5022976;28;20679;-85
2023/07/30 05:45:38;;;;;;;1.20;1.10;;;;;;;18.51;93.52;95352.00;5011757;28;20216;-86
2023/07/30 05:48:03;;;;;;;1.75;1.00;;;;;;;18.59;92.10;95350.00;5023539;28;20194;-87
2023/07/30 05:50:28;;;;;;;1.15;1.05;;;;;;;18.62;92.56;95349.59;5033973;28;20261;-88
2023/07/30 05:52:54;;;;;;;1.77;1.25;;;;;;;18.79;91.55;95355.28;5029798;28;20342;-87
2023/07/30 05:55:19;;;;;;;1.65;1.30;;;;;;;18.94;89.66;95361.16;5047371;28;20206;-86
2023/07/30 05:57:44;;;;;;;1.42;1.20;;;;;;;20.25;82.17;95365.41;5014295;28;20195;-86
2023/07/30 06:00:10;;;;;;;1.48;0.90;;;;;;;20.53;82.91;95362.41;5017402;28;20195;-86
2023/07/30 06:02:35;;;;;;;1.77;1.35;;;;;;;21.30;78.95;95353.28;5001532;28;20336;-87
2023/07/30 06:05:01;;;;;;;1.73;1.05;;;;;;;23.08;68.88;95354.56;5009004;28;20675;-87
2023/07/30 06:07:26;;;;;;;1.13;1.10;;;;;;;24.67;61.93;95357.50;5020993;28;20290;-87
2023/07/30 06:09:52;;;;;;;2.75;1.20;;;;;;;24.95;59.76;95369.91;5017981;28;20183;-86
2023/07/30 06:12:17;;;;;;;1.42;1.33;;;;;;;24.65;60.72;95369.41;5008358;28;20183;-87
2023/07/30 06:14:42;;;;;;;1.90;1.40;;;;;;;24.00;62.22;95365.28;5006379;28;20224;-86
2023/07/30 06:17:07;;;;;;;1.63;1.35;;;;;;;23.43;64.71;95358.00;5008242;28;20179;-86
2023/07/30 06:19:34;;;;;;;3.05;1.42;;;;;;;24.17;62.07;95362.69;5002724;28;20197;-86
2023/07/30 06:21:59;;;;;;;1.90;1.50;;;;;;;25.40;59.19;95377.78;5007719;28;20274;-87
2023/07/30 06:24:25;;;;;;;1.58;1.20;;;;;;;25.84;56.71;95382.41;5011326;28;20598;-85
2023/07/30 06:26:50;;;;;;;1.38;1.25;;;;;;;25.48;55.17;95373.91;5009365;28;20265;-88
2023/07/30 06:29:15;;;;;;;1.33;1.23;;;;;;;24.24;58.84;95380.06;5022231;28;20178;-88
2023/07/30 06:31:41;;;;;;;2.50;1.23;;;;;;;22.93;63.48;95372.72;5010096;28;20174;-86
2023/07/30 06:34:06;;;;;;;1.58;1.48;;;;;;;22.47;66.44;95372.38;5022140;28;20175;-86
2023/07/30 06:36:32;;;;;;;1.52;1.42;;;;;;;21.79;70.70;95388.50;5038151;28;20194;-85
2023/07/30 06:38:57;;;;;;;1.67;1.42;;;;;;;21.43;72.12;95399.84;5036294;28;20170;-86
2023/07/30 06:41:22;;;;;;;1.60;1.50;;;;;;;20.91;74.73;95404.56;5023551;28;20183;-85
2023/07/30 06:43:48;;;;;;;1.73;1.63;;;;;;;20.56;77.74;95402.34;5004574;28;20178;-85
2023/07/30 06:46:13;;;;;;;2.05;1.40;;;;;;;20.48;79.55;95412.34;5020711;28;20306;-82
2023/07/30 06:48:38;;;;;;;2.00;1.67;;;;;;;20.26;82.12;95411.84;5023440;28;20236;-84
2023/07/30 06:51:07;;;;;;;1.70;1.60;;;;;;;20.07;83.39;95417.00;5023033;28;20182;-84
2023/07/30 06:53:32;;;;;;;3.72;1.92;;;;;;;20.06;83.49;95425.13;5015823;28;20170;-79
2023/07/30 06:55:58;;;;;;;1.90;1.80;;;;;;;19.93;84.27;95419.91;5016767;28;20191;-79
2023/07/30 06:58:23;;;;;;;1.83;1.63;;;;;;;19.61;86.20;95424.25;5021656;28;20187;-79
2023/07/30 07:00:48;;;;;;;2.25;1.85;;;;;;;19.26;89.25;95424.50;5018976;28;20175;-79
2023/07/30 07:03:14;;;;;;;2.45;1.60;;;;;;;19.06;88.77;95421.88;5021816;28;20235;-79
2023/07/30 07:05:39;;;;;;;2.80;1.95;;;;;;;19.03;89.47;95429.38;5021532;28;20234;-79
2023/07/30 07:08:05;;;;;;;2.20;1.80;;;;;;;18.87;90.31;95423.47;5023350;28;20274;-79
2023/07/30 07:10:31;;;;;;;1.95;1.52;;;;;;;18.74;89.46;95423.50;5022258;28;20225;-79
2023/07/30 07:12:56;;;;;;;1.80;1.70;;;;;;;18.60;90.80;95434.97;5040537;28;20772;-78
2023/07/30 07:15:21;;;;;;;1.55;1.35;;;;;;;18.75;90.27;95435.63;5021878;28;20210;-78
2023/07/30 07:17:46;;;;;;;2.42;1.70;;;;;;;18.96;88.66;95426.72;5018737;28;20591;-79
2023/07/30 07:20:12;;;;;;;2.50;1.90;;;;;;;18.99;87.50;95438.66;5020231;28;20654;-78
2023/07/30 07:22:37;;;;;;;3.25;1.80;;;;;;;18.58;88.45;95436.97;5007311;28;20708;-81
2023/07/30 07:25:03;;;;;;;1.95;1.70;;;;;;;18.78;87.22;95439.66;5025559;28;20228;-82
2023/07/30 07:27:28;;;;;;;2.00;1.73;;;;;;;18.99;86.62;95428.94;5013747;28;20197;-80
2023/07/30 07:29:53;;;;;;;2.35;1.70;;;;;;;19.03;86.80;95434.63;5024033;28;20569;-80
2023/07/30 07:32:19;;;;;;;2.10;1.90;;;;;;;19.11;85.43;95431.78;5017830;28;20182;-81
2023/07/30 07:34:48;;;;;;;2.78;1.70;;;;;;;18.99;84.42;95431.56;5001045;28;20293;-80
2023/07/30 07:37:18;;;;;;;1.83;1.70;;;;;;;19.21;84.43;95440.09;5017748;28;20732;-84
2023/07/30 07:39:44;;;;;;;2.88;2.00;;;;;;;18.89;85.41;95441.69;5005201;28;20573;-84
2023/07/30 07:42:09;;;;;;;2.83;2.03;;;;;;;19.05;85.54;95432.59;5024511;28;20170;-82
2023/07/30 07:44:35;;;;;;;4.47;1.85;;;;;;;19.26;84.85;95424.50;5036905;28;20214;-83
2023/07/30 07:47:00;;;;;;;2.63;2.28;;;;;;;19.20;84.14;95438.47;5039652;28;20265;-83
2023/07/30 07:49:26;;;;;;;2.50;1.80;;;;;;;19.60;83.27;95436.59;5014026;28;20190;-83
2023/07/30 07:51:51;;;;;;;2.72;2.40;;;;;;;19.72;82.21;95428.91;5014669;28;20658;-82
2023/07/30 07:54:16;;;;;;;2.72;2.20;;;;;;;19.88;82.25;95443.41;5019102;28;20248;-83
2023/07/30 07:56:41;;;;;;;2.20;2.00;;;;;;;20.10;79.75;95447.41;5003645;28;20202;-84
2023/07/30 07:59:07;;;;;;;2.63;2.15;;;;;;;20.25;79.28;95444.50;5022280;28;20235;-83
2023/07/30 08:01:32;;;;;;;2.58;2.08;;;;;;;20.31;77.20;95447.09;5016802;28;20179;-82
2023/07/30 08:03:58;;;;;;;2.35;1.80;;;;;;;20.79;75.97;95451.13;5000071;28;20190;-84
2023/07/30 08:06:23;;;;;;;2.53;2.17;;;;;;;21.30;73.83;95458.91;5018234;28;20713;-83
2023/07/30 08:08:48;;;;;;;2.70;1.80;;;;;;;21.68;72.49;95452.66;5006602;28;20182;-82
2023/07/30 08:11:14;;;;;;;3.90;2.17;;;;;;;21.77;71.80;95462.72;5020719;28;20190;-83
2023/07/30 08:13:39;;;;;;;2.78;1.77;;;;;;;21.86;70.08;95449.22;5008335;28;20643;-84
2023/07/30 08:16:04;;;;;;;2.45;1.92;;;;;;;21.28;70.29;95450.38;5041476;28;20195;-83
2023/07/30 08:18:30;;;;;;;2.38;1.90;;;;;;;20.95;70.81;95440.06;5032892;28;20210;-82
2023/07/30 08:20:55;;;;;;;1.90;1.77;;;;;;;20.99;72.01;95445.72;5044733;28;20175;-83
2023/07/30 08:23:21;;;;;;;2.55;2.33;;;;;;;21.18;71.87;95442.91;5026808;28;20202;-83
2023/07/30 08:25:46;;;;;;;2.00;1.80;;;;;;;21.19;71.03;95441.06;5042007;28;20256;-84
2023/07/30 08:28:11;;;;;;;2.17;1.98;;;;;;;21.04;70.83;95438.78;5014689;28;20190;-84
2023/07/30 08:30:36;;;;;;;3.40;2.28;;;;;;;21.54;70.49;95438.75;5016024;28;20186;-85
2023/07/30 08:33:02;;;;;;;2.13;1.90;;;;;;;21.52;68.71;95442.66;5039757;28;20218;-85
2023/07/30 08:35:28;;;;;;;2.25;2.05;;;;;;;21.13;69.88;95453.31;5024672;28;20202;-85
2023/07/30 08:37:54;;;;;;;2.45;2.25;;;;;;;20.73;70.37;95463.34;5028303;28;20180;-85
2023/07/30 08:40:23;;;;;;;4.05;2.17;;;;;;;20.97;70.74;95467.06;5024660;28;20186;-85
2023/07/30 08:42:49;;;;;;;2.25;1.65;;;;;;;21.49;70.83;95470.31;5035090;28;20189;-85
2023/07/30 08:45:15;;;;;;;2.95;2.17;;;;;;;21.69;69.57;95463.00;5019245;28;20219;-85
2023/07/30 08:47:41;;;;;;;3.30;1.92;;;;;;;21.64;70.33;95469.97;5033076;28;20304;-90
2023/07/30 08:50:06;;;;;;;2.35;2.10;;;;;;;21.46;69.39;95457.53;5001512;28;20186;-90
2023/07/30 08:52:32;;;;;;;4.13;1.85;;;;;;;21.87;68.69;95461.41;5000175;28;20652;-90
2023/07/30 08:54:58;;;;;;;2.15;1.95;;;;;;;21.81;69.11;95464.91;5018380;28;20289;-91
2023/07/30 08:57:24;;;;;;;2.20;2.05;;;;;;;21.73;69.03;95471.28;5019583;28;20182;-90
2023/07/30 08:59:53;;;;;;;2.22;2.03;;;;;;;21.74;68.81;95471.09;5016722;28;20669;-91
2023/07/30 09:02:31;;;;;;;4.05;2.45;;;;;;;21.57;68.59;95475.34;5016498;28;20666;-88
2023/07/30 09:04:58;;;;;;;3.55;2.05;;;;;;;21.17;67.00;95475.63;5016523;28;20214;-82
2023/07/30 09:07:26;;;;;;;2.58;2.33;;;;;;;21.36;67.19;95478.34;5032184;28;20285;-83
2023/07/30 09:09:51;;;;;;;2.42;1.85;;;;;;;21.21;67.10;95471.53;5022577;28;20186;-82
2023/07/30 09:12:17;;;;;;;2.42;2.03;;;;;;;21.55;66.41;95465.97;5026054;28;20563;-82
2023/07/30 09:14:46;;;;;;;3.17;2.30;;;;;;;21.58;65.88;95469.00;5024228;28;20199;-82
2023/07/30 09:17:20;;;;;;;4.43;2.17;;;;;;;21.71;65.13;95476.00;5028763;28;20234;-82
2023/07/30 09:19:50;;;;;;;2.83;2.00;;;;;;;22.14;64.44;95473.34;5015167;28;20281;-83
2023/07/30 09:22:33;;;;;;;4.13;2.90;;;;;;;21.68;63.71;95484.38;5000022;28;20179;-82
2023/07/30 09:25:02;;;;;;;2.92;2.20;;;;;;;21.32;64.67;95485.91;5018329;28;20267;-82
2023/07/30 09:27:27;;;;;;;5.13;2.35;;;;;;;21.40;63.47;95485.63;5022545;28;20190;-83
2023/07/30 09:29:54;;;;;;;3.55;2.50;;;;;;;21.75;63.34;95488.56;5026173;28;20190;-82
2023/07/30 09:32:20;;;;;;;3.58;2.33;;;;;;;21.87;61.39;95506.34;5024242;28;20182;-82
2023/07/30 09:34:46;;;;;;;4.18;2.20;;;;;;;21.46;59.69;95505.09;5027619;28;20225;-82
2023/07/30 09:37:11;;;;;;;2.78;2.45;;;;;;;21.37;59.93;95507.19;5001308;28;20187;-82
2023/07/30 09:39:37;;;;;;;3.20;2.38;;;;;;;21.43;61.14;95502.88;4999205;28;20281;-82
2023/07/30 09:42:03;;;;;;;3.50;2.50;;;;;;;21.16;60.65;95503.06;5016838;28;20183;-83
2023/07/30 09:44:28;;;;;;;2.60;2.40;;;;;;;21.08;62.12;95513.88;5035589;28;20659;-82
2023/07/30 09:46:54;;;;;;;3.42;2.47;;;;;;;20.52;63.52;95508.53;5006204;28;20248;-82
2023/07/30 09:49:19;;;;;;;3.08;2.50;;;;;;;20.57;64.17;95504.22;5028011;28;20175;-82
2023/07/30 09:51:44;;;;;;;3.72;2.70;;;;;;;20.96;63.17;95507.66;5045938;28;20213;-80
2023/07/30 09:54:14;;;;;;;3.05;2.60;;;;;;;21.10;63.37;95511.81;5047539;28;20208;-82
2023/07/30 09:56:40;;;;;;;2.88;2.42;;;;;;;20.91;63.44;95512.75;5009729;28;20202;-80
2023/07/30 09:59:06;;;;;;;2.70;2.50;;;;;;;21.02;63.38;95511.28;5017238;28;20193;-81
2023/07/30 10:01:44;;;;;;;3.13;2.70;;;;;;;21.03;62.18;95495.25;5021007;28;20187;-81
2023/07/30 10:04:10;;;;;;;2.72;2.53;;;;;;;21.36;61.66;95515.31;5023234;28;20216;-85
2023/07/30 10:06:41;;;;;;;2.42;2.22;;;;;;;21.53;59.63;95513.75;5006802;28;20238;-85
2023/07/30 10:09:07;;;;;;;3.30;2.45;;;;;;;21.61;60.42;95518.78;5029512;28;20187;-85
2023/07/30 10:11:32;;;;;;;3.08;2.40;;;;;;;21.67;58.42;95520.56;5013069;28;20193;-85
2023/07/30 10:13:58;;;;;;;5.10;2.50;;;;;;;22.05;58.26;95511.66;5032293;28;20194;-85
2023/07/30 10:16:28;;;;;;;4.47;3.30;;;;;;;22.36;57.46;95510.72;5015874;28;20293;-86
2023/07/30 10:18:57;;;;;;;5.63;2.35;;;;;;;22.01;57.96;95513.13;5018535;28;20281;-84
2023/07/30 10:21:25;;;;;;;3.40;2.75;;;;;;;22.09;58.04;95510.22;5008380;28;20246;-81
2023/07/30 10:24:02;;;;;;;3.03;2.20;;;;;;;22.05;57.83;95514.28;5011306;28;20182;-80
2023/07/30 10:26:29;;;;;;;2.70;2.45;;;;;;;21.95;58.04;95519.28;5024319;28;20214;-81
2023/07/30 10:29:17;;;;;;;2.90;2.30;;;;;;;21.98;59.41;95529.41;5026654;28;20265;-81
2023/07/30 10:31:53;;;;;;;4.68;2.60;;;;;;;21.15;60.58;95519.94;5023138;28;20179;-80
2023/07/30 10:34:19;;;;;;;5.85;2.63;;;;;;;21.27;61.36;95537.75;5033352;28;20298;-82
2023/07/30 10:36:51;;;;;;;2.53;2.33;;;;;;;21.46;61.75;95528.84;5033694;28;20221;-84
2023/07/30 10:39:17;;;;;;;2.90;2.30;;;;;;;21.18;61.13;95534.53;5018490;28;20604;-83
2023/07/30 10:41:49;;;;;;;3.88;2.20;;;;;;;21.19;60.53;95547.50;5023729;28;20194;-85
2023/07/30 10:44:25;;;;;;;4.00;2.25;;;;;;;20.88;60.45;95539.59;5023481;28;20198;-84
2023/07/30 10:46:51;;;;;;;2.70;2.50;;;;;;;20.54;62.04;95538.94;5037029;28;20187;-84
2023/07/30 10:49:17;;;;;;;6.03;2.80;;;;;;;20.55;62.46;95537.91;5020921;28;20797;-79
2023/07/30 10:51:42;;;;;;;2.90;2.00;;;;;;;20.85;62.85;95546.13;5016966;28;20247;-82
2023/07/30 10:54:08;;;;;;;2.72;2.35;;;;;;;20.45;65.65;95549.94;5000141;28;20603;-83
2023/07/30 10:56:36;;;;;;;3.88;2.70;;;;;;;20.22;68.70;95561.72;5045001;28;20198;-83
2023/07/30 10:59:03;;;;;;;2.80;2.60;;;;;;;20.19;68.07;95566.63;5029248;28;20253;-83
2023/07/30 11:01:29;;;;;;;2.92;2.58;;;;;;;20.30;67.82;95564.16;5026679;28;20621;-83
2023/07/30 11:03:54;;;;;;;3.63;2.40;;;;;;;20.58;66.88;95560.44;5039562;28;20229;-83
2023/07/30 11:06:23;;;;;;;3.13;2.17;;;;;;;20.53;64.91;95568.97;5003867;28;20203;-83
2023/07/30 11:08:49;;;;;;;8.05;2.90;;;;;;;20.32;64.07;95561.31;5018548;28;20555;-83
2023/07/30 11:11:15;;;;;;;3.00;2.55;;;;;;;20.48;64.57;95560.88;5012112;28;20183;-83
2023/07/30 11:13:48;;;;;;;3.10;2.60;;;;;;;20.20;65.37;95563.78;5018504;28;20594;-81
2023/07/30 11:16:14;;;;;;;4.75;2.33;;;;;;;20.72;64.69;95567.28;5016436;28;20234;-83
2023/07/30 11:18:41;;;;;;;4.72;2.30;;;;;;;20.78;63.65;95553.25;5021723;28;20193;-83
2023/07/30 11:21:16;;;;;;;4.32;2.83;;;;;;;20.63;63.35;95553.50;5024408;28;20262;-83
2023/07/30 11:23:42;;;;;;;4.57;2.70;;;;;;;20.59;64.65;95552.31;5027823;28;20189;-83
2023/07/30 11:26:08;;;;;;;3.38;2.30;;;;;;;20.69;64.23;95562.44;5021137;28;20718;-83